Time;durP1;ratioP1;P1;durP2;ratioP2;P2;SDS_P1;SDS_P2;PMS_P1;PMS_P2;Temp;Humidity;BMP_temperature;BMP_pressure;BME280_temperature;BME280_humidity;BME280_pressure;Samples;Min_cycle;Max_cycle;Signal;HPM_P1;HPM_P2
2021/07/06 00:02:00;;;;;;;2.28;2.17;;;26.80;53.10;;;;;;5108777;28;20465;-66
2021/07/06 00:04:27;;;;;;;2.40;2.25;;;26.80;53.10;;;;;;5108726;28;20046;-67
2021/07/06 00:06:54;;;;;;;2.00;1.90;;;26.80;53.10;;;;;;5108829;28;20081;-66
2021/07/06 00:09:22;;;;;;;3.90;2.28;;;26.80;53.10;;;;;;5108974;28;20081;-67
2021/07/06 00:11:49;;;;;;;2.80;2.38;;;26.80;53.10;;;;;;5108705;28;20058;-66
2021/07/06 00:14:16;;;;;;;2.30;2.13;;;26.70;53.10;;;;;;5090338;28;20094;-66
2021/07/06 00:16:43;;;;;;;2.47;2.28;;;26.70;53.10;;;;;;5108858;28;20044;-67
2021/07/06 00:19:11;;;;;;;2.10;2.00;;;26.80;53.20;;;;;;5108228;28;20051;-66
2021/07/06 00:21:38;;;;;;;2.50;2.30;;;26.70;53.60;;;;;;5090686;28;20135;-66
2021/07/06 00:24:05;;;;;;;2.58;2.38;;;26.70;53.00;;;;;;5108677;28;20130;-67
2021/07/06 00:26:32;;;;;;;2.17;2.00;;;26.70;53.00;;;;;;5108013;28;20044;-68
2021/07/06 00:28:59;;;;;;;2.13;1.98;;;26.70;53.00;;;;;;5109298;28;20071;-66
2021/07/06 00:31:27;;;;;;;2.53;2.35;;;26.70;53.00;;;;;;5108237;28;20567;-66
2021/07/06 00:33:54;;;;;;;2.92;1.92;;;26.70;53.00;;;;;;5109062;28;20464;-67
2021/07/06 00:36:21;;;;;;;2.90;2.70;;;26.70;53.00;;;;;;5108131;28;20134;-66
2021/07/06 00:38:49;;;;;;;2.33;2.13;;;26.70;53.00;;;;;;5108731;28;20055;-66
2021/07/06 00:41:16;;;;;;;1.98;1.88;;;26.70;53.00;;;;;;5108475;28;20135;-67
2021/07/06 00:43:44;;;;;;;1.77;1.67;;;26.70;53.00;;;;;;5110054;28;20066;-67
2021/07/06 00:46:11;;;;;;;2.35;2.15;;;26.70;52.90;;;;;;5112519;28;20040;-66
2021/07/06 00:48:38;;;;;;;3.00;2.38;;;26.80;53.00;;;;;;5112352;28;20055;-66
2021/07/06 00:51:06;;;;;;;2.42;2.22;;;26.70;52.90;;;;;;5112194;28;20051;-67
2021/07/06 00:53:33;;;;;;;1.90;1.80;;;26.70;52.90;;;;;;5094262;28;20138;-66
2021/07/06 00:56:00;;;;;;;1.88;1.77;;;26.80;53.00;;;;;;5112260;28;20146;-66
2021/07/06 00:58:28;;;;;;;2.28;2.10;;;26.70;53.00;;;;;;5093822;28;20047;-67
2021/07/06 01:00:55;;;;;;;2.00;1.90;;;26.70;53.00;;;;;;5094399;28;20052;-66
2021/07/06 01:03:27;;;;;;;2.15;2.05;;;26.70;53.00;;;;;;5112449;28;20071;-66
2021/07/06 01:05:54;;;;;;;2.30;2.20;;;26.70;53.00;;;;;;5094021;28;20051;-67
2021/07/06 01:08:21;;;;;;;2.30;2.17;;;26.70;53.00;;;;;;5112245;28;20174;-67
2021/07/06 01:10:48;;;;;;;2.13;2.03;;;26.70;53.00;;;;;;5112442;28;20109;-67
2021/07/06 01:13:18;;;;;;;2.00;1.88;;;26.70;53.00;;;;;;5111869;28;20134;-66
2021/07/06 01:15:45;;;;;;;2.20;2.10;;;26.70;53.00;;;;;;5112321;28;20104;-67
2021/07/06 01:18:15;;;;;;;2.80;1.80;;;26.70;53.00;;;;;;5112189;28;20073;-67
2021/07/06 01:20:44;;;;;;;;;;;26.70;53.00;;;;;;5094188;28;20134;-66
2021/07/06 01:23:12;;;;;;;2.13;2.03;;;26.70;53.00;;;;;;5112044;28;19926;-66
2021/07/06 01:25:41;;;;;;;2.00;1.90;;;26.70;53.00;;;;;;5111349;28;20075;-67
2021/07/06 01:28:09;;;;;;;2.13;2.03;;;26.70;53.00;;;;;;5112007;28;20467;-67
2021/07/06 01:30:37;;;;;;;2.05;1.95;;;26.70;53.00;;;;;;5093798;28;20128;-67
2021/07/06 01:33:05;;;;;;;1.88;1.77;;;26.70;53.00;;;;;;5111545;28;20134;-67
2021/07/06 01:35:33;;;;;;;2.30;2.13;;;26.70;53.00;;;;;;5111757;28;20419;-67
2021/07/06 01:38:04;;;;;;;1.70;1.60;;;26.70;53.00;;;;;;5111332;28;20543;-67
2021/07/06 01:40:32;;;;;;;2.22;2.08;;;26.70;53.00;;;;;;5111736;28;20051;-67
2021/07/06 01:43:00;;;;;;;2.63;2.42;;;26.60;52.90;;;;;;5111570;28;20051;-67
2021/07/06 01:45:29;;;;;;;2.03;1.92;;;26.60;53.00;;;;;;5093622;28;20047;-66
2021/07/06 01:48:00;;;;;;;2.15;2.05;;;26.60;53.00;;;;;;5111089;28;20050;-67
2021/07/06 01:50:31;;;;;;;2.13;2.00;;;26.60;53.00;;;;;;5111182;28;20043;-67
2021/07/06 01:53:02;;;;;;;1.95;1.85;;;26.60;52.90;;;;;;5111789;28;20102;-66
2021/07/06 01:55:34;;;;;;;1.90;1.80;;;26.70;53.00;;;;;;5091525;28;20039;-67
2021/07/06 01:58:03;;;;;;;1.80;1.70;;;26.60;52.90;;;;;;5111288;28;20047;-67
2021/07/06 02:00:33;;;;;;;1.93;1.83;;;26.70;53.00;;;;;;5110940;28;20075;-66
2021/07/06 02:03:02;;;;;;;2.95;2.72;;;26.70;52.90;;;;;;5111112;28;20294;-67
2021/07/06 02:05:39;;;;;;;2.28;1.63;;;26.70;52.90;;;;;;5111538;28;20142;-67
2021/07/06 02:08:10;;;;;;;1.73;1.65;;;26.70;52.90;;;;;;5111083;28;20083;-67
2021/07/06 02:10:39;;;;;;;2.13;2.03;;;26.70;52.90;;;;;;5111058;28;20084;-67
2021/07/06 02:13:12;;;;;;;1.90;1.80;;;26.70;52.80;;;;;;5110935;28;20492;-67
2021/07/06 02:15:40;;;;;;;2.47;2.28;;;26.70;52.90;;;;;;5111356;28;20125;-66
2021/07/06 02:18:14;;;;;;;2.20;2.00;;;26.60;52.80;;;;;;5111009;28;20547;-67
2021/07/06 02:20:42;;;;;;;1.90;1.80;;;26.60;52.80;;;;;;5111002;28;20043;-67
2021/07/06 02:23:09;;;;;;;2.53;2.33;;;26.60;52.80;;;;;;5111155;28;20105;-67
2021/07/06 02:25:37;;;;;;;2.05;1.95;;;26.70;52.90;;;;;;5110539;28;20098;-66
2021/07/06 02:28:04;;;;;;;1.85;1.75;;;26.60;52.80;;;;;;5110506;28;20051;-67
2021/07/06 02:30:31;;;;;;;2.30;1.75;;;26.60;52.80;;;;;;5110928;28;20083;-66
2021/07/06 02:32:59;;;;;;;2.13;2.03;;;26.70;52.90;;;;;;5092166;28;20090;-67
2021/07/06 02:35:29;;;;;;;2.45;2.20;;;26.60;52.80;;;;;;5110612;28;20122;-67
2021/07/06 02:37:56;;;;;;;;;;;26.60;52.80;;;;;;5110475;28;20043;-67
2021/07/06 02:40:25;;;;;;;1.85;1.75;;;26.60;52.80;;;;;;5110780;28;19920;-66
2021/07/06 02:42:54;;;;;;;2.10;2.00;;;26.60;52.90;;;;;;5110245;28;20135;-67
2021/07/06 02:45:21;;;;;;;1.98;1.80;;;26.60;52.90;;;;;;5092083;28;20086;-67
2021/07/06 02:47:48;;;;;;;1.60;1.50;;;26.60;52.90;;;;;;5110221;28;20062;-67
2021/07/06 02:50:18;;;;;;;1.88;1.75;;;26.60;52.90;;;;;;5110262;28;20043;-67
2021/07/06 02:52:46;;;;;;;2.30;2.13;;;26.60;52.90;;;;;;5092118;28;20058;-67
2021/07/06 02:55:15;;;;;;;1.98;1.88;;;26.60;52.90;;;;;;5109619;28;20568;-67
2021/07/06 02:57:43;;;;;;;1.88;1.77;;;26.60;52.80;;;;;;5110230;28;20492;-67
2021/07/06 03:00:21;;;;;;;2.00;1.90;;;26.60;52.80;;;;;;5110606;28;20052;-67
2021/07/06 03:02:58;;;;;;;1.80;1.70;;;26.60;53.40;;;;;;5109375;28;20043;-67
2021/07/06 03:05:30;;;;;;;2.10;2.00;;;26.60;53.40;;;;;;5109501;28;20051;-67
2021/07/06 03:07:58;;;;;;;1.80;1.70;;;26.60;52.80;;;;;;5075260;28;20043;-67
2021/07/06 03:10:28;;;;;;;1.95;1.85;;;26.60;52.80;;;;;;5110092;28;20048;-67
2021/07/06 03:12:56;;;;;;;1.90;1.80;;;26.60;52.80;;;;;;5109894;28;20074;-66
2021/07/06 03:15:26;;;;;;;2.13;2.03;;;26.60;52.80;;;;;;5092152;28;20043;-68
2021/07/06 03:17:53;;;;;;;1.88;1.77;;;26.60;52.80;;;;;;5092516;28;20080;-67
2021/07/06 03:20:24;;;;;;;2.15;1.98;;;26.60;52.70;;;;;;5110162;28;20686;-67
2021/07/06 03:22:52;;;;;;;2.30;2.20;;;26.60;52.70;;;;;;5114691;28;20606;-67
2021/07/06 03:25:21;;;;;;;2.05;1.95;;;26.60;52.70;;;;;;5095997;28;20093;-67
2021/07/06 03:27:49;;;;;;;1.90;1.75;;;26.60;52.60;;;;;;5113580;28;20046;-67
2021/07/06 03:30:20;;;;;;;1.98;1.88;;;26.60;52.60;;;;;;5112617;28;20551;-67
2021/07/06 03:32:48;;;;;;;2.00;1.90;;;26.60;52.60;;;;;;5113603;28;20075;-67
2021/07/06 03:35:16;;;;;;;2.10;2.00;;;26.60;52.50;;;;;;5097035;28;20067;-67
2021/07/06 03:37:43;;;;;;;1.80;1.70;;;26.70;52.50;;;;;;5108677;28;20461;-67
2021/07/06 03:40:13;;;;;;;1.73;1.63;;;26.70;52.50;;;;;;5108611;28;20040;-67
2021/07/06 03:42:40;;;;;;;2.33;2.00;;;26.70;52.50;;;;;;5108940;28;20154;-67
2021/07/06 03:45:12;;;;;;;1.65;1.55;;;26.70;52.50;;;;;;5109126;28;20628;-66
2021/07/06 03:47:39;;;;;;;2.30;2.10;;;26.70;52.40;;;;;;5108551;28;20135;-66
2021/07/06 03:50:10;;;;;;;2.30;2.10;;;26.70;52.40;;;;;;5108620;28;20066;-67
2021/07/06 03:52:37;;;;;;;1.65;1.55;;;26.70;52.50;;;;;;5108933;28;20040;-66
2021/07/06 03:55:07;;;;;;;2.13;2.03;;;26.70;52.30;;;;;;5108509;28;20138;-67
2021/07/06 03:57:36;;;;;;;1.98;1.88;;;26.70;52.30;;;;;;5108467;28;20086;-67
2021/07/06 04:00:09;;;;;;;1.75;1.65;;;26.70;52.30;;;;;;5109027;28;20077;-66
2021/07/06 04:02:37;;;;;;;1.70;1.60;;;26.70;52.20;;;;;;5108650;28;20079;-66
2021/07/06 04:05:08;;;;;;;1.75;1.65;;;26.70;52.20;;;;;;5108830;28;20085;-66
2021/07/06 04:07:37;;;;;;;2.00;1.90;;;26.80;52.80;;;;;;5108759;28;20061;-66
2021/07/06 04:10:06;;;;;;;1.92;1.83;;;26.80;52.20;;;;;;5090708;28;20725;-66
2021/07/06 04:12:33;;;;;;;2.00;1.80;;;26.80;52.10;;;;;;5107517;28;20142;-67
2021/07/06 04:15:00;;;;;;;1.88;1.60;;;26.80;52.10;;;;;;5107423;28;20454;-66
2021/07/06 04:17:27;;;;;;;2.00;1.90;;;26.80;52.00;;;;;;5106798;28;20044;-66
2021/07/06 04:19:56;;;;;;;2.17;1.98;;;26.80;51.90;;;;;;5107155;28;20050;-67
2021/07/06 04:22:23;;;;;;;1.83;1.73;;;26.90;51.90;;;;;;5107678;28;20126;-67
2021/07/06 04:24:51;;;;;;;1.70;1.60;;;26.90;51.90;;;;;;5107423;28;20630;-67
2021/07/06 04:27:18;;;;;;;1.90;1.80;;;26.90;51.80;;;;;;5107294;28;20054;-67
2021/07/06 04:29:47;;;;;;;1.75;1.65;;;26.90;51.70;;;;;;5107638;28;20138;-67
2021/07/06 04:32:16;;;;;;;2.00;1.90;;;26.90;51.70;;;;;;5107512;28;20429;-66
2021/07/06 04:34:44;;;;;;;1.70;1.60;;;26.90;51.60;;;;;;5090060;28;20046;-67
2021/07/06 04:37:15;;;;;;;1.95;1.85;;;27.00;51.60;;;;;;5107315;28;20071;-67
2021/07/06 04:39:43;;;;;;;1.98;1.88;;;27.00;51.50;;;;;;5108263;28;20044;-67
2021/07/06 04:42:13;;;;;;;1.77;1.67;;;27.00;51.50;;;;;;5106433;28;20079;-67
2021/07/06 04:44:40;;;;;;;1.50;1.50;;;27.10;51.50;;;;;;5081395;28;20051;-67
2021/07/06 04:47:07;;;;;;;1.67;1.58;;;27.10;51.40;;;;;;5106956;28;20109;-67
2021/07/06 04:49:34;;;;;;;1.65;1.55;;;27.10;51.30;;;;;;5100247;28;20709;-67
2021/07/06 04:52:06;;;;;;;1.98;1.88;;;27.10;51.30;;;;;;5100502;28;20061;-66
2021/07/06 04:54:33;;;;;;;1.85;1.75;;;27.10;51.20;;;;;;5103461;28;20043;-67
2021/07/06 04:57:01;;;;;;;1.95;1.85;;;27.20;51.10;;;;;;5102952;28;20082;-67
2021/07/06 04:59:28;;;;;;;1.88;1.77;;;27.20;51.10;;;;;;5103779;28;20138;-67
2021/07/06 05:01:56;;;;;;;2.25;1.30;;;27.20;51.00;;;;;;5082559;28;20071;-67
2021/07/06 05:04:23;;;;;;;2.00;1.90;;;27.30;51.60;;;;;;5105952;28;20050;-67
2021/07/06 05:06:50;;;;;;;1.65;1.55;;;27.30;50.90;;;;;;5103693;28;20123;-67
2021/07/06 05:09:18;;;;;;;2.30;1.70;;;27.20;51.10;;;;;;5105533;28;20035;-67
2021/07/06 05:11:45;;;;;;;1.83;1.73;;;27.20;51.30;;;;;;5105804;28;20052;-67
2021/07/06 05:14:12;;;;;;;1.27;1.27;;;27.00;51.60;;;;;;5102993;28;20058;-67
2021/07/06 05:16:39;;;;;;;1.75;1.65;;;26.90;51.80;;;;;;5096464;28;20039;-67
2021/07/06 05:19:06;;;;;;;1.88;1.77;;;26.80;52.30;;;;;;5100185;28;20043;-68
2021/07/06 05:21:34;;;;;;;1.85;1.73;;;26.70;52.60;;;;;;5080351;28;20577;-66
2021/07/06 05:24:08;;;;;;;2.95;1.90;;;26.60;52.90;;;;;;5101613;28;20044;-66
2021/07/06 05:26:35;;;;;;;2.05;1.95;;;26.40;53.00;;;;;;5101619;28;20150;-67
2021/07/06 05:29:03;;;;;;;2.47;2.28;;;26.20;52.70;;;;;;5103615;28;20051;-67
2021/07/06 05:31:30;;;;;;;2.90;2.70;;;26.00;53.00;;;;;;5105415;27;20064;-67
2021/07/06 05:33:58;;;;;;;3.50;3.20;;;25.90;52.90;;;;;;5106485;27;20043;-68
2021/07/06 05:36:25;;;;;;;5.30;3.30;;;25.70;53.00;;;;;;5098320;28;20045;-68
2021/07/06 05:38:53;;;;;;;3.60;3.30;;;25.60;53.00;;;;;;5092451;28;20051;-66
2021/07/06 05:41:21;;;;;;;4.05;3.75;;;25.40;52.90;;;;;;5097200;27;20865;-69
2021/07/06 05:43:48;;;;;;;5.13;4.47;;;25.30;53.10;;;;;;5079016;28;20892;-68
2021/07/06 05:46:16;;;;;;;7.57;4.68;;;25.20;53.70;;;;;;5075943;28;20047;-68
2021/07/06 05:48:43;;;;;;;5.63;4.55;;;25.10;53.90;;;;;;5086639;28;20075;-66
2021/07/06 05:51:10;;;;;;;5.95;4.82;;;24.90;54.30;;;;;;5104757;28;20071;-67
2021/07/06 05:53:37;;;;;;;4.40;4.00;;;24.80;54.50;;;;;;5097471;28;20123;-68
2021/07/06 05:56:06;;;;;;;6.22;4.82;;;24.80;54.70;;;;;;5105963;28;20147;-68
2021/07/06 05:58:34;;;;;;;7.45;5.10;;;24.70;55.00;;;;;;5097244;28;20353;-67
2021/07/06 06:01:02;;;;;;;8.18;5.15;;;24.60;55.40;;;;;;5096238;28;20063;-67
2021/07/06 06:03:29;;;;;;;9.55;5.30;;;24.60;55.70;;;;;;5100346;28;20196;-68
2021/07/06 06:05:56;;;;;;;6.07;5.10;;;24.50;56.40;;;;;;5068799;28;20058;-66
2021/07/06 06:08:24;;;;;;;6.53;4.80;;;24.50;57.10;;;;;;5103949;28;20079;-66
2021/07/06 06:10:51;;;;;;;5.72;4.75;;;24.50;57.10;;;;;;5102492;27;20048;-68
2021/07/06 06:13:18;;;;;;;8.63;5.90;;;24.40;57.30;;;;;;5110165;27;20058;-68
2021/07/06 06:15:45;;;;;;;10.23;5.15;;;24.50;57.50;;;;;;5103900;27;20042;-70
2021/07/06 06:18:13;;;;;;;5.75;5.18;;;24.40;57.70;;;;;;5105654;28;20707;-68
2021/07/06 06:20:42;;;;;;;6.88;5.38;;;24.40;57.90;;;;;;5104257;27;20148;-69
2021/07/06 06:23:09;;;;;;;6.38;4.88;;;24.40;57.50;;;;;;5103675;28;20075;-67
2021/07/06 06:25:36;;;;;;;5.50;4.88;;;24.40;57.80;;;;;;5106291;27;20154;-71
2021/07/06 06:28:03;;;;;;;7.75;4.78;;;24.40;57.30;;;;;;5102904;28;20043;-71
2021/07/06 06:30:30;;;;;;;6.22;4.40;;;24.40;57.20;;;;;;5095306;27;20047;-68
2021/07/06 06:32:58;;;;;;;4.88;4.47;;;24.40;57.30;;;;;;5104289;27;20131;-70
2021/07/06 06:35:26;;;;;;;5.03;4.50;;;24.40;57.30;;;;;;5103846;27;20075;-64
2021/07/06 06:37:53;;;;;;;5.55;4.45;;;24.40;57.20;;;;;;5095620;28;20072;-66
2021/07/06 06:40:20;;;;;;;5.32;4.25;;;24.40;57.00;;;;;;5084159;28;20058;-67
2021/07/06 06:42:47;;;;;;;5.03;4.57;;;24.40;57.00;;;;;;5100349;27;20078;-65
2021/07/06 06:45:15;;;;;;;4.68;4.28;;;24.40;57.20;;;;;;5102786;27;20057;-65
2021/07/06 06:47:42;;;;;;;4.60;4.15;;;24.40;57.40;;;;;;5063565;27;20460;-66
2021/07/06 06:50:12;;;;;;;5.43;4.65;;;24.40;57.40;;;;;;5107635;27;20078;-65
2021/07/06 06:52:39;;;;;;;5.45;4.95;;;24.30;57.40;;;;;;5107669;27;20099;-65
2021/07/06 06:55:07;;;;;;;5.28;4.78;;;24.30;57.60;;;;;;5096227;28;20466;-66
2021/07/06 06:57:37;;;;;;;5.60;5.07;;;24.30;57.70;;;;;;5101870;27;20138;-66
2021/07/06 07:00:08;;;;;;;6.93;4.40;;;24.30;57.70;;;;;;5082143;28;20051;-67
2021/07/06 07:02:35;;;;;;;5.90;5.20;;;24.30;57.80;;;;;;5098310;27;20044;-65
2021/07/06 07:05:03;;;;;;;5.43;4.93;;;24.30;57.90;;;;;;5102404;28;20582;-69
2021/07/06 07:07:30;;;;;;;5.22;4.68;;;24.30;58.00;;;;;;5083782;28;20119;-69
2021/07/06 07:09:58;;;;;;;9.57;4.88;;;24.30;58.10;;;;;;5102204;27;20043;-69
2021/07/06 07:12:26;;;;;;;7.43;5.05;;;24.30;58.10;;;;;;5101809;28;20050;-68
2021/07/06 07:14:54;;;;;;;5.55;4.72;;;24.30;58.10;;;;;;5101441;27;20345;-69
2021/07/06 07:17:22;;;;;;;5.18;4.25;;;24.30;58.00;;;;;;5102747;28;20071;-67
2021/07/06 07:19:51;;;;;;;6.18;4.95;;;24.30;58.00;;;;;;5083503;28;20131;-69
2021/07/06 07:22:18;;;;;;;6.15;4.95;;;24.30;58.00;;;;;;5082865;28;20131;-68
2021/07/06 07:24:46;;;;;;;5.63;5.13;;;24.40;58.00;;;;;;5103419;28;20133;-68
2021/07/06 07:27:13;;;;;;;6.07;5.05;;;24.40;57.90;;;;;;5098103;28;20661;-69
2021/07/06 07:29:40;;;;;;;6.18;5.55;;;24.40;57.80;;;;;;5107037;28;20500;-70
2021/07/06 07:32:08;;;;;;;5.95;4.82;;;24.40;57.80;;;;;;5093088;28;20526;-68
2021/07/06 07:34:35;;;;;;;7.35;4.93;;;24.40;57.80;;;;;;5080330;28;20047;-68
2021/07/06 07:37:03;;;;;;;4.95;4.20;;;24.40;57.90;;;;;;5099887;27;20488;-69
2021/07/06 07:39:32;;;;;;;5.70;4.75;;;24.40;57.90;;;;;;5101343;27;20134;-68
2021/07/06 07:42:00;;;;;;;6.15;4.45;;;24.50;58.00;;;;;;5100803;27;20126;-70
2021/07/06 07:44:28;;;;;;;7.80;5.07;;;24.50;57.90;;;;;;5082121;28;20122;-68
2021/07/06 07:46:55;;;;;;;5.55;4.60;;;24.50;57.90;;;;;;5101840;27;20131;-67
2021/07/06 07:49:22;;;;;;;6.38;5.20;;;24.50;57.90;;;;;;5087947;28;20560;-66
2021/07/06 07:51:49;;;;;;;9.25;5.15;;;24.50;58.10;;;;;;5098293;28;20044;-69
2021/07/06 07:54:16;;;;;;;7.82;5.15;;;24.50;58.20;;;;;;5101566;28;20063;-67
2021/07/06 07:56:44;;;;;;;6.00;5.10;;;24.50;58.30;;;;;;5102303;27;20044;-70
2021/07/06 07:59:11;;;;;;;8.88;5.05;;;24.60;58.50;;;;;;5096363;28;20132;-69
2021/07/06 08:01:39;;;;;;;4.95;4.40;;;24.60;58.40;;;;;;5098572;27;20115;-69
2021/07/06 08:04:06;;;;;;;5.38;4.63;;;24.60;58.40;;;;;;5098448;28;20067;-67
2021/07/06 08:06:33;;;;;;;5.47;4.63;;;24.60;58.60;;;;;;5096714;27;20556;-68
2021/07/06 08:09:00;;;;;;;7.63;4.88;;;24.60;58.70;;;;;;5102625;28;20079;-66
2021/07/06 08:11:27;;;;;;;5.93;5.20;;;24.60;58.60;;;;;;5100122;28;20110;-67
2021/07/06 08:13:55;;;;;;;7.03;5.22;;;24.70;58.70;;;;;;5098013;28;20108;-66
2021/07/06 08:16:22;;;;;;;6.70;5.25;;;24.70;58.70;;;;;;5096226;28;20048;-67
2021/07/06 08:18:49;;;;;;;8.88;4.95;;;24.70;58.80;;;;;;5097376;28;20039;-66
2021/07/06 08:21:19;;;;;;;6.00;4.20;;;24.70;58.60;;;;;;5074102;28;20043;-66
2021/07/06 08:23:46;;;;;;;4.50;4.05;;;24.70;58.70;;;;;;5098278;28;20054;-68
2021/07/06 08:26:16;;;;;;;6.50;4.95;;;24.70;58.70;;;;;;5095282;28;20134;-68
2021/07/06 08:28:45;;;;;;;5.40;4.70;;;24.80;58.80;;;;;;5093121;28;20043;-68
2021/07/06 08:31:13;;;;;;;4.75;4.30;;;24.80;58.70;;;;;;5089545;28;20052;-69
2021/07/06 08:33:40;;;;;;;7.03;4.85;;;24.80;58.70;;;;;;5100730;28;20040;-66
2021/07/06 08:36:08;;;;;;;6.28;4.25;;;24.80;58.90;;;;;;5101844;28;20134;-68
2021/07/06 08:38:38;;;;;;;6.75;4.97;;;24.90;59.30;;;;;;5081260;28;20047;-65
2021/07/06 08:41:06;;;;;;;7.30;4.70;;;24.90;59.80;;;;;;5096483;28;20975;-68
2021/07/06 08:43:35;;;;;;;5.47;4.47;;;24.90;59.90;;;;;;5097722;28;20050;-64
2021/07/06 08:46:03;;;;;;;10.07;4.65;;;24.90;60.20;;;;;;5098746;28;20119;-65
2021/07/06 08:48:33;;;;;;;5.47;4.30;;;24.80;60.30;;;;;;5098828;28;20040;-68
2021/07/06 08:51:01;;;;;;;5.25;4.55;;;24.70;60.60;;;;;;5099392;28;20554;-68
2021/07/06 08:53:28;;;;;;;5.07;4.57;;;24.70;61.40;;;;;;5093797;28;20389;-68
2021/07/06 08:55:58;;;;;;;6.47;4.30;;;24.70;61.30;;;;;;5103378;28;20489;-68
2021/07/06 08:58:26;;;;;;;4.90;4.35;;;24.60;61.40;;;;;;5096153;28;20577;-67
2021/07/06 09:00:53;;;;;;;7.25;4.80;;;24.60;61.40;;;;;;5090768;28;20036;-71
2021/07/06 09:06:54;;;;;;;5.18;4.65;;;24.50;61.60;;;;;;5099514;27;20104;-67
2021/07/06 09:09:28;;;;;;;5.35;4.85;;;24.50;61.70;;;;;;5101232;27;20163;-68
2021/07/06 09:11:56;;;;;;;4.85;4.38;;;24.50;61.70;;;;;;5103383;28;20047;-68
2021/07/06 09:14:29;;;;;;;4.53;4.13;;;24.50;61.70;;;;;;5094526;28;20138;-67
2021/07/06 09:17:18;;;;;;;5.72;4.57;;;24.50;61.90;;;;;;5077750;28;20048;-65
2021/07/06 09:19:48;;;;;;;4.60;4.00;;;24.50;61.90;;;;;;5100489;27;20162;-67
2021/07/06 09:22:26;;;;;;;5.68;4.85;;;24.50;61.90;;;;;;5100427;27;20059;-69
2021/07/06 09:25:00;;;;;;;4.85;4.43;;;24.40;61.90;;;;;;5101994;27;20070;-67
2021/07/06 09:27:35;;;;;;;5.80;4.90;;;24.50;61.90;;;;;;5102654;27;20138;-67
2021/07/06 09:30:14;;;;;;;4.75;4.28;;;24.50;62.00;;;;;;5099539;27;20036;-68
2021/07/06 09:32:56;;;;;;;4.80;4.10;;;24.50;62.00;;;;;;5095702;27;20067;-66
2021/07/06 09:35:28;;;;;;;4.57;4.15;;;24.50;62.10;;;;;;5093318;28;20127;-68
2021/07/06 09:38:00;;;;;;;4.78;4.28;;;24.50;61.90;;;;;;5080169;28;20127;-71
2021/07/06 09:40:33;;;;;;;4.47;4.07;;;24.50;61.90;;;;;;5094660;28;20067;-69
2021/07/06 09:43:23;;;;;;;5.70;4.28;;;24.50;62.40;;;;;;5082988;28;20139;-67
2021/07/06 09:46:09;;;;;;;4.95;4.28;;;24.50;61.90;;;;;;5089453;28;20068;-69
2021/07/06 09:48:43;;;;;;;4.88;4.10;;;24.50;62.00;;;;;;5070630;28;20070;-66
2021/07/06 09:51:40;;;;;;;5.05;4.40;;;24.50;62.10;;;;;;5100532;27;20036;-66
2021/07/06 09:55:11;;;;;;;4.38;3.97;;;24.50;62.30;;;;;;5095386;27;20171;-67
2021/07/06 09:58:20;;;;;;;4.22;3.80;;;24.50;62.30;;;;;;5090473;27;20036;-67
2021/07/06 10:00:50;;;;;;;4.97;4.47;;;24.50;62.10;;;;;;5104112;27;20051;-67
2021/07/06 10:03:19;;;;;;;4.38;4.03;;;24.50;61.90;;;;;;5098014;27;20036;-66
2021/07/06 10:05:49;;;;;;;4.18;3.78;;;24.50;61.70;;;;;;5079473;28;20074;-67
2021/07/06 10:08:17;;;;;;;4.95;4.15;;;24.50;61.90;;;;;;5099132;27;20043;-67
2021/07/06 10:10:45;;;;;;;6.50;4.18;;;24.50;61.70;;;;;;5101897;28;20044;-66
2021/07/06 10:13:12;;;;;;;3.58;3.28;;;24.50;61.40;;;;;;5100757;27;20048;-68
2021/07/06 10:15:40;;;;;;;4.32;3.42;;;24.50;61.50;;;;;;5080700;28;20223;-68
2021/07/06 10:18:10;;;;;;;4.22;3.83;;;24.40;61.30;;;;;;5168503;22;20097;31
2021/07/06 10:20:38;;;;;;;4.13;3.72;;;24.40;61.40;;;;;;5012927;28;20077;-68
2021/07/06 10:23:05;;;;;;;5.97;3.88;;;24.40;61.50;;;;;;4968834;28;20096;-69
2021/07/06 10:25:34;;;;;;;5.88;3.40;;;24.40;61.40;;;;;;5005128;28;20060;-68
2021/07/06 10:28:06;;;;;;;4.67;3.80;;;24.40;61.40;;;;;;5002985;28;20037;-68
2021/07/06 10:30:46;;;;;;;3.72;3.28;;;24.40;61.40;;;;;;5009106;28;20937;-68
2021/07/06 10:33:32;;;;;;;4.20;3.80;;;24.40;61.40;;;;;;5002694;28;20069;-68
2021/07/06 10:36:00;;;;;;;4.05;3.65;;;24.40;61.50;;;;;;5004080;28;20077;-66
2021/07/06 10:38:41;;;;;;;3.83;3.50;;;24.40;61.50;;;;;;5007009;28;20376;-66
2021/07/06 10:41:30;;;;;;;4.60;3.90;;;24.40;61.40;;;;;;5006962;28;20050;-67
2021/07/06 10:43:58;;;;;;;4.45;3.75;;;24.40;61.20;;;;;;5007255;28;20048;-71
2021/07/06 10:46:30;;;;;;;4.20;3.80;;;24.40;61.20;;;;;;5002071;28;20045;-68
2021/07/06 10:49:26;;;;;;;4.95;3.63;;;24.40;61.30;;;;;;4998329;28;20049;-69
2021/07/06 10:51:55;;;;;;;5.00;3.20;;;24.40;61.00;;;;;;4997741;28;20042;-65
2021/07/06 10:54:38;;;;;;;3.97;3.55;;;24.30;61.20;;;;;;5010429;28;20077;-67
2021/07/06 10:57:14;;;;;;;3.95;3.55;;;24.40;61.20;;;;;;5014227;28;20045;-65
2021/07/06 10:59:42;;;;;;;4.20;3.80;;;24.30;60.80;;;;;;5000604;28;20115;-66
2021/07/06 11:02:23;;;;;;;3.75;3.40;;;24.30;60.70;;;;;;4995570;28;20097;-65
2021/07/06 11:04:54;;;;;;;6.43;4.35;;;24.30;60.70;;;;;;4991409;28;20068;-65
2021/07/06 11:07:42;;;;;;;3.90;3.47;;;24.30;60.60;;;;;;4996342;28;20105;-66
2021/07/06 11:10:11;;;;;;;4.00;3.63;;;24.30;60.60;;;;;;4999134;28;20635;-67
2021/07/06 11:12:43;;;;;;;4.78;3.92;;;24.30;60.80;;;;;;5001784;28;20050;-64
2021/07/06 11:15:24;;;;;;;4.20;3.80;;;24.30;61.40;;;;;;5004407;28;20042;-68
2021/07/06 11:18:24;;;;;;;5.00;3.70;;;24.30;60.80;;;;;;4999361;28;20044;-66
2021/07/06 11:21:03;;;;;;;4.88;4.07;;;24.30;61.00;;;;;;5004517;28;20049;-65
2021/07/06 11:23:33;;;;;;;3.83;3.47;;;24.30;60.80;;;;;;5000573;28;20108;-66
2021/07/06 11:26:06;;;;;;;4.32;3.92;;;24.30;60.70;;;;;;5001200;28;20052;-65
2021/07/06 11:28:50;;;;;;;4.28;3.85;;;24.30;60.60;;;;;;5005032;28;20049;-66
2021/07/06 11:31:20;;;;;;;3.53;3.22;;;24.30;60.60;;;;;;5003644;28;20500;-66
2021/07/06 11:33:47;;;;;;;4.40;4.00;;;24.30;60.50;;;;;;5002331;28;20045;-65
2021/07/06 11:36:25;;;;;;;4.68;3.58;;;24.30;60.40;;;;;;5000808;28;20499;-66
2021/07/06 11:39:01;;;;;;;6.43;4.28;;;24.30;60.30;;;;;;5000626;28;20088;-67
2021/07/06 11:42:04;;;;;;;4.25;3.85;;;24.30;60.30;;;;;;4972564;28;20064;-67
2021/07/06 11:44:31;;;;;;;3.92;3.58;;;24.30;60.60;;;;;;5001323;28;20145;-67
2021/07/06 11:47:10;;;;;;;5.03;4.22;;;24.30;60.70;;;;;;5006201;28;20715;-65
2021/07/06 11:49:38;;;;;;;4.43;4.03;;;24.30;60.70;;;;;;5017697;28;20072;-67
2021/07/06 11:52:07;;;;;;;4.32;3.92;;;24.30;60.80;;;;;;5005914;28;20084;-68
2021/07/06 11:54:35;;;;;;;5.93;4.03;;;24.40;60.90;;;;;;5007562;28;20136;-69
2021/07/06 11:57:07;;;;;;;4.22;3.83;;;24.30;60.90;;;;;;5004626;28;20069;-66
2021/07/06 11:59:35;;;;;;;6.35;3.95;;;24.30;60.80;;;;;;5002802;28;20070;-67
2021/07/06 12:02:07;;;;;;;4.53;4.05;;;24.30;60.80;;;;;;5007930;28;20049;-67
2021/07/06 12:04:36;;;;;;;7.72;3.90;;;24.30;60.40;;;;;;5006421;28;20046;-66
2021/07/06 12:07:12;;;;;;;5.03;4.00;;;24.30;60.30;;;;;;5008232;28;20127;-67
2021/07/06 12:09:39;;;;;;;5.05;4.20;;;24.30;60.30;;;;;;5011085;28;20101;-67
2021/07/06 12:12:16;;;;;;;4.10;3.70;;;24.30;60.20;;;;;;5008124;28;20046;-69
2021/07/06 12:14:50;;;;;;;4.90;3.95;;;24.30;60.20;;;;;;5022111;28;20544;-70
2021/07/06 12:21:08;;;;;;;4.68;3.92;;;24.30;60.50;;;;;;5012165;28;20060;-67
2021/07/06 12:23:46;;;;;;;4.45;3.95;;;24.40;61.40;;;;;;5010093;28;20507;-68
2021/07/06 12:26:14;;;;;;;5.03;4.20;;;24.30;61.30;;;;;;5007173;28;20045;-68
2021/07/06 12:28:42;;;;;;;6.00;4.28;;;24.40;61.30;;;;;;5003690;28;20118;-68
2021/07/06 12:31:33;;;;;;;4.47;3.80;;;24.40;61.20;;;;;;5002584;28;20053;-67
2021/07/06 12:34:13;;;;;;;4.88;4.30;;;24.40;61.20;;;;;;4999428;28;20132;-68
2021/07/06 12:36:45;;;;;;;3.83;3.50;;;24.40;61.00;;;;;;5002990;28;20092;-69
2021/07/06 12:39:17;;;;;;;4.63;3.58;;;24.40;61.10;;;;;;5009979;28;20053;-67
2021/07/06 12:41:52;;;;;;;6.68;4.15;;;24.40;61.00;;;;;;5019634;28;20488;-68
2021/07/06 12:44:32;;;;;;;3.92;3.40;;;24.40;60.90;;;;;;5017920;28;20128;-68
2021/07/06 12:47:23;;;;;;;4.95;4.45;;;24.40;60.90;;;;;;5008189;28;20134;-69
2021/07/06 12:49:57;;;;;;;5.85;3.97;;;24.40;60.70;;;;;;5011603;28;20050;-67
2021/07/06 12:52:46;;;;;;;4.47;3.65;;;24.50;60.50;;;;;;5011037;28;20045;-68
2021/07/06 12:55:23;;;;;;;4.37;3.53;;;24.40;60.40;;;;;;5016097;28;20132;-68
2021/07/06 12:58:09;;;;;;;5.22;3.47;;;24.40;60.40;;;;;;5004466;28;20045;-69
2021/07/06 13:00:37;;;;;;;7.60;3.65;;;24.40;60.40;;;;;;5009249;28;20796;-66
2021/07/06 13:03:13;;;;;;;4.07;3.65;;;24.40;60.40;;;;;;5007905;28;20073;-69
2021/07/06 13:05:42;;;;;;;4.47;3.83;;;24.40;60.80;;;;;;5008808;28;20761;-69
2021/07/06 13:08:26;;;;;;;5.22;3.78;;;24.30;60.80;;;;;;5006228;28;20038;-66
2021/07/06 13:11:05;;;;;;;4.15;3.70;;;24.40;61.00;;;;;;5009548;28;20069;-66
2021/07/06 13:13:33;;;;;;;4.75;3.67;;;24.40;61.00;;;;;;5015818;28;20077;-65